sensor_id;sensor_type;location;lat;lon;timestamp;P1;durP1;ratioP1;P2;durP2;ratioP2
21833;SDS011;11079;51.092;3.458;2024-03-29T00:00:03;6.75;;;1.20;;
21833;SDS011;11079;51.092;3.458;2024-03-29T00:02:29;4.10;;;0.90;;
21833;SDS011;11079;51.092;3.458;2024-03-29T00:04:55;1.10;;;0.80;;
21833;SDS011;11079;51.092;3.458;2024-03-29T00:07:21;1.75;;;0.73;;
21833;SDS011;11079;51.092;3.458;2024-03-29T00:09:46;5.38;;;1.30;;
21833;SDS011;11079;51.092;3.458;2024-03-29T00:12:12;4.88;;;1.00;;
21833;SDS011;11079;51.092;3.458;2024-03-29T00:14:37;5.07;;;1.17;;
21833;SDS011;11079;51.092;3.458;2024-03-29T00:17:04;1.38;;;0.77;;
21833;SDS011;11079;51.092;3.458;2024-03-29T00:19:30;4.00;;;1.00;;
21833;SDS011;11079;51.092;3.458;2024-03-29T00:21:56;1.63;;;0.90;;
21833;SDS011;11079;51.092;3.458;2024-03-29T00:24:21;6.43;;;1.20;;
21833;SDS011;11079;51.092;3.458;2024-03-29T00:26:47;3.53;;;0.95;;
21833;SDS011;11079;51.092;3.458;2024-03-29T00:29:12;3.72;;;1.02;;
21833;SDS011;11079;51.092;3.458;2024-03-29T00:31:38;0.98;;;0.82;;
21833;SDS011;11079;51.092;3.458;2024-03-29T00:34:04;2.05;;;0.60;;
21833;SDS011;11079;51.092;3.458;2024-03-29T00:36:29;5.25;;;1.17;;
21833;SDS011;11079;51.092;3.458;2024-03-29T00:38:55;6.85;;;1.50;;
21833;SDS011;11079;51.092;3.458;2024-03-29T00:41:20;6.53;;;1.30;;
21833;SDS011;11079;51.092;3.458;2024-03-29T00:43:47;5.53;;;0.93;;
21833;SDS011;11079;51.092;3.458;2024-03-29T00:46:13;7.18;;;1.30;;
21833;SDS011;11079;51.092;3.458;2024-03-29T00:48:39;3.70;;;1.00;;
21833;SDS011;11079;51.092;3.458;2024-03-29T00:51:05;2.78;;;1.45;;
21833;SDS011;11079;51.092;3.458;2024-03-29T00:53:31;5.40;;;1.15;;
21833;SDS011;11079;51.092;3.458;2024-03-29T00:55:57;3.40;;;1.88;;
21833;SDS011;11079;51.092;3.458;2024-03-29T00:58:22;6.32;;;1.25;;
21833;SDS011;11079;51.092;3.458;2024-03-29T01:00:48;3.13;;;0.88;;
21833;SDS011;11079;51.092;3.458;2024-03-29T01:03:13;4.85;;;1.27;;
21833;SDS011;11079;51.092;3.458;2024-03-29T01:05:39;2.88;;;1.10;;
21833;SDS011;11079;51.092;3.458;2024-03-29T01:08:05;5.93;;;2.08;;
21833;SDS011;11079;51.092;3.458;2024-03-29T01:10:31;3.78;;;0.90;;
21833;SDS011;11079;51.092;3.458;2024-03-29T01:12:56;4.13;;;1.00;;
21833;SDS011;11079;51.092;3.458;2024-03-29T01:15:22;4.95;;;0.93;;
21833;SDS011;11079;51.092;3.458;2024-03-29T01:17:47;2.58;;;0.98;;
21833;SDS011;11079;51.092;3.458;2024-03-29T01:20:13;2.42;;;0.90;;
21833;SDS011;11079;51.092;3.458;2024-03-29T01:22:39;6.57;;;1.05;;
21833;SDS011;11079;51.092;3.458;2024-03-29T01:25:06;2.47;;;0.73;;
21833;SDS011;11079;51.092;3.458;2024-03-29T01:27:34;2.75;;;1.10;;
21833;SDS011;11079;51.092;3.458;2024-03-29T01:30:00;1.40;;;0.88;;
21833;SDS011;11079;51.092;3.458;2024-03-29T01:32:26;4.13;;;1.35;;
21833;SDS011;11079;51.092;3.458;2024-03-29T01:34:51;3.90;;;1.20;;
21833;SDS011;11079;51.092;3.458;2024-03-29T01:37:17;3.97;;;1.00;;
21833;SDS011;11079;51.092;3.458;2024-03-29T01:39:42;5.57;;;1.00;;
21833;SDS011;11079;51.092;3.458;2024-03-29T01:42:08;0.80;;;0.70;;
21833;SDS011;11079;51.092;3.458;2024-03-29T01:44:34;4.32;;;0.90;;
21833;SDS011;11079;51.092;3.458;2024-03-29T01:47:01;2.00;;;0.90;;
21833;SDS011;11079;51.092;3.458;2024-03-29T01:49:27;3.30;;;0.90;;
21833;SDS011;11079;51.092;3.458;2024-03-29T01:51:54;1.73;;;0.68;;
21833;SDS011;11079;51.092;3.458;2024-03-29T01:54:20;1.15;;;0.73;;
21833;SDS011;11079;51.092;3.458;2024-03-29T01:56:46;0.75;;;0.70;;
21833;SDS011;11079;51.092;3.458;2024-03-29T01:59:13;2.35;;;0.80;;
21833;SDS011;11079;51.092;3.458;2024-03-29T02:01:43;1.98;;;1.00;;
21833;SDS011;11079;51.092;3.458;2024-03-29T02:04:10;2.33;;;0.60;;
21833;SDS011;11079;51.092;3.458;2024-03-29T02:06:39;3.05;;;0.98;;
21833;SDS011;11079;51.092;3.458;2024-03-29T02:09:05;2.20;;;0.70;;
21833;SDS011;11079;51.092;3.458;2024-03-29T02:11:31;1.83;;;0.70;;
21833;SDS011;11079;51.092;3.458;2024-03-29T02:13:57;1.25;;;0.88;;
21833;SDS011;11079;51.092;3.458;2024-03-29T02:16:23;2.90;;;0.98;;
21833;SDS011;11079;51.092;3.458;2024-03-29T02:18:48;2.28;;;0.80;;
21833;SDS011;11079;51.092;3.458;2024-03-29T02:21:14;2.17;;;0.82;;
21833;SDS011;11079;51.092;3.458;2024-03-29T02:23:41;1.50;;;0.73;;
21833;SDS011;11079;51.092;3.458;2024-03-29T02:26:09;0.60;;;0.50;;
21833;SDS011;11079;51.092;3.458;2024-03-29T02:28:36;3.95;;;0.90;;
21833;SDS011;11079;51.092;3.458;2024-03-29T02:31:01;1.30;;;0.45;;
21833;SDS011;11079;51.092;3.458;2024-03-29T02:33:27;1.23;;;0.93;;
21833;SDS011;11079;51.092;3.458;2024-03-29T02:35:53;1.55;;;0.60;;
21833;SDS011;11079;51.092;3.458;2024-03-29T02:38:19;1.70;;;0.60;;
21833;SDS011;11079;51.092;3.458;2024-03-29T02:40:45;1.85;;;0.73;;
21833;SDS011;11079;51.092;3.458;2024-03-29T02:43:10;0.57;;;0.52;;
21833;SDS011;11079;51.092;3.458;2024-03-29T02:45:36;1.65;;;0.68;;
21833;SDS011;11079;51.092;3.458;2024-03-29T02:48:02;0.40;;;0.40;;
21833;SDS011;11079;51.092;3.458;2024-03-29T02:50:27;0.75;;;0.45;;
21833;SDS011;11079;51.092;3.458;2024-03-29T02:52:53;3.25;;;0.70;;
21833;SDS011;11079;51.092;3.458;2024-03-29T02:55:19;0.65;;;0.65;;
21833;SDS011;11079;51.092;3.458;2024-03-29T02:57:44;1.20;;;0.60;;
21833;SDS011;11079;51.092;3.458;2024-03-29T03:00:10;2.35;;;0.60;;
21833;SDS011;11079;51.092;3.458;2024-03-29T03:02:37;1.90;;;0.80;;
21833;SDS011;11079;51.092;3.458;2024-03-29T03:05:04;0.55;;;0.55;;
21833;SDS011;11079;51.092;3.458;2024-03-29T03:07:30;1.95;;;0.70;;
21833;SDS011;11079;51.092;3.458;2024-03-29T03:10:14;0.70;;;0.60;;
21833;SDS011;11079;51.092;3.458;2024-03-29T03:12:58;1.27;;;0.47;;
21833;SDS011;11079;51.092;3.458;2024-03-29T03:15:24;0.40;;;0.40;;
21833;SDS011;11079;51.092;3.458;2024-03-29T03:17:49;4.30;;;0.60;;
21833;SDS011;11079;51.092;3.458;2024-03-29T03:20:15;0.95;;;0.50;;
21833;SDS011;11079;51.092;3.458;2024-03-29T03:22:41;1.00;;;0.57;;
21833;SDS011;11079;51.092;3.458;2024-03-29T03:25:07;1.38;;;0.52;;
21833;SDS011;11079;51.092;3.458;2024-03-29T03:27:33;0.38;;;0.38;;
21833;SDS011;11079;51.092;3.458;2024-03-29T03:29:59;1.63;;;0.50;;
21833;SDS011;11079;51.092;3.458;2024-03-29T03:32:25;1.02;;;0.85;;
21833;SDS011;11079;51.092;3.458;2024-03-29T03:34:51;2.30;;;0.70;;
21833;SDS011;11079;51.092;3.458;2024-03-29T03:37:18;2.70;;;1.15;;
21833;SDS011;11079;51.092;3.458;2024-03-29T03:39:43;1.15;;;0.80;;
21833;SDS011;11079;51.092;3.458;2024-03-29T03:42:09;2.08;;;0.50;;
21833;SDS011;11079;51.092;3.458;2024-03-29T03:44:35;1.08;;;0.73;;
21833;SDS011;11079;51.092;3.458;2024-03-29T03:47:01;1.30;;;0.80;;
21833;SDS011;11079;51.092;3.458;2024-03-29T03:49:26;1.85;;;0.73;;
21833;SDS011;11079;51.092;3.458;2024-03-29T03:51:52;1.02;;;0.65;;
21833;SDS011;11079;51.092;3.458;2024-03-29T03:54:19;3.00;;;0.80;;
21833;SDS011;11079;51.092;3.458;2024-03-29T03:56:44;1.48;;;0.75;;
21833;SDS011;11079;51.092;3.458;2024-03-29T03:59:10;0.70;;;0.65;;
21833;SDS011;11079;51.092;3.458;2024-03-29T04:01:35;1.17;;;0.80;;
21833;SDS011;11079;51.092;3.458;2024-03-29T04:04:01;2.38;;;0.80;;
21833;SDS011;11079;51.092;3.458;2024-03-29T04:06:27;1.10;;;0.98;;
21833;SDS011;11079;51.092;3.458;2024-03-29T04:08:52;2.25;;;1.10;;
21833;SDS011;11079;51.092;3.458;2024-03-29T04:11:18;2.50;;;0.80;;
21833;SDS011;11079;51.092;3.458;2024-03-29T04:13:45;2.78;;;0.95;;
21833;SDS011;11079;51.092;3.458;2024-03-29T04:16:10;2.53;;;1.38;;
21833;SDS011;11079;51.092;3.458;2024-03-29T04:18:36;3.67;;;0.80;;
21833;SDS011;11079;51.092;3.458;2024-03-29T04:21:02;5.82;;;1.20;;
21833;SDS011;11079;51.092;3.458;2024-03-29T04:23:28;4.35;;;1.20;;
21833;SDS011;11079;51.092;3.458;2024-03-29T04:25:55;3.40;;;1.30;;
21833;SDS011;11079;51.092;3.458;2024-03-29T04:28:22;5.10;;;1.30;;
21833;SDS011;11079;51.092;3.458;2024-03-29T04:30:54;3.97;;;1.33;;
21833;SDS011;11079;51.092;3.458;2024-03-29T04:33:21;3.70;;;1.40;;
21833;SDS011;11079;51.092;3.458;2024-03-29T04:35:54;5.88;;;1.52;;
21833;SDS011;11079;51.092;3.458;2024-03-29T04:38:21;2.33;;;1.27;;
21833;SDS011;11079;51.092;3.458;2024-03-29T04:40:48;2.47;;;1.38;;
21833;SDS011;11079;51.092;3.458;2024-03-29T04:43:14;2.25;;;1.52;;
21833;SDS011;11079;51.092;3.458;2024-03-29T04:45:40;4.88;;;1.50;;
21833;SDS011;11079;51.092;3.458;2024-03-29T04:48:05;1.73;;;1.27;;
21833;SDS011;11079;51.092;3.458;2024-03-29T04:50:31;3.40;;;1.20;;
21833;SDS011;11079;51.092;3.458;2024-03-29T04:52:57;2.85;;;1.27;;
21833;SDS011;11079;51.092;3.458;2024-03-29T04:55:22;5.05;;;1.33;;
21833;SDS011;11079;51.092;3.458;2024-03-29T04:57:48;5.15;;;1.50;;
21833;SDS011;11079;51.092;3.458;2024-03-29T05:00:14;4.93;;;1.73;;
21833;SDS011;11079;51.092;3.458;2024-03-29T05:02:39;3.13;;;1.33;;
21833;SDS011;11079;51.092;3.458;2024-03-29T05:05:05;3.30;;;0.85;;
21833;SDS011;11079;51.092;3.458;2024-03-29T05:07:31;3.83;;;1.45;;
21833;SDS011;11079;51.092;3.458;2024-03-29T05:09:56;5.00;;;1.52;;
21833;SDS011;11079;51.092;3.458;2024-03-29T05:12:22;2.15;;;1.20;;
21833;SDS011;11079;51.092;3.458;2024-03-29T05:14:47;5.05;;;1.50;;
21833;SDS011;11079;51.092;3.458;2024-03-29T05:17:14;3.90;;;1.48;;
21833;SDS011;11079;51.092;3.458;2024-03-29T05:19:42;3.38;;;1.67;;
21833;SDS011;11079;51.092;3.458;2024-03-29T05:22:08;5.53;;;1.38;;
21833;SDS011;11079;51.092;3.458;2024-03-29T05:24:34;4.10;;;1.70;;
21833;SDS011;11079;51.092;3.458;2024-03-29T05:26:59;3.63;;;1.30;;
21833;SDS011;11079;51.092;3.458;2024-03-29T05:29:25;4.25;;;1.30;;
21833;SDS011;11079;51.092;3.458;2024-03-29T05:31:50;3.97;;;1.02;;
21833;SDS011;11079;51.092;3.458;2024-03-29T05:34:16;5.25;;;1.23;;
21833;SDS011;11079;51.092;3.458;2024-03-29T05:36:42;2.78;;;1.65;;
21833;SDS011;11079;51.092;3.458;2024-03-29T05:39:09;2.70;;;1.25;;
21833;SDS011;11079;51.092;3.458;2024-03-29T05:41:34;3.45;;;1.48;;
21833;SDS011;11079;51.092;3.458;2024-03-29T05:44:00;2.97;;;1.40;;
21833;SDS011;11079;51.092;3.458;2024-03-29T05:46:26;3.03;;;1.35;;
21833;SDS011;11079;51.092;3.458;2024-03-29T05:48:51;2.20;;;1.15;;
21833;SDS011;11079;51.092;3.458;2024-03-29T05:51:17;4.00;;;1.52;;
21833;SDS011;11079;51.092;3.458;2024-03-29T05:53:43;8.43;;;1.20;;
21833;SDS011;11079;51.092;3.458;2024-03-29T05:56:08;2.90;;;1.10;;
21833;SDS011;11079;51.092;3.458;2024-03-29T05:58:36;4.50;;;1.13;;
21833;SDS011;11079;51.092;3.458;2024-03-29T06:01:01;3.70;;;1.50;;
21833;SDS011;11079;51.092;3.458;2024-03-29T06:03:28;5.60;;;1.50;;
21833;SDS011;11079;51.092;3.458;2024-03-29T06:05:54;4.88;;;1.80;;
21833;SDS011;11079;51.092;3.458;2024-03-29T06:08:20;2.25;;;1.20;;
21833;SDS011;11079;51.092;3.458;2024-03-29T06:10:46;3.90;;;1.77;;
21833;SDS011;11079;51.092;3.458;2024-03-29T06:13:12;5.32;;;1.58;;
21833;SDS011;11079;51.092;3.458;2024-03-29T06:15:56;4.00;;;1.90;;
21833;SDS011;11079;51.092;3.458;2024-03-29T06:18:40;3.53;;;1.70;;
21833;SDS011;11079;51.092;3.458;2024-03-29T06:21:06;5.20;;;1.42;;
21833;SDS011;11079;51.092;3.458;2024-03-29T06:23:32;3.17;;;1.35;;
21833;SDS011;11079;51.092;3.458;2024-03-29T06:25:58;1.83;;;1.63;;
21833;SDS011;11079;51.092;3.458;2024-03-29T06:28:24;6.88;;;1.58;;
21833;SDS011;11079;51.092;3.458;2024-03-29T06:30:49;4.13;;;1.45;;
21833;SDS011;11079;51.092;3.458;2024-03-29T06:33:15;3.47;;;1.50;;
21833;SDS011;11079;51.092;3.458;2024-03-29T06:35:40;4.30;;;1.30;;
21833;SDS011;11079;51.092;3.458;2024-03-29T06:38:06;5.75;;;1.70;;
21833;SDS011;11079;51.092;3.458;2024-03-29T06:40:32;9.13;;;2.10;;
21833;SDS011;11079;51.092;3.458;2024-03-29T06:42:57;5.50;;;1.33;;
21833;SDS011;11079;51.092;3.458;2024-03-29T06:45:24;8.43;;;1.90;;
21833;SDS011;11079;51.092;3.458;2024-03-29T06:47:50;3.08;;;1.80;;
21833;SDS011;11079;51.092;3.458;2024-03-29T06:50:17;3.80;;;1.60;;
21833;SDS011;11079;51.092;3.458;2024-03-29T06:52:43;9.32;;;2.03;;
21833;SDS011;11079;51.092;3.458;2024-03-29T06:55:08;4.40;;;2.13;;
21833;SDS011;11079;51.092;3.458;2024-03-29T06:57:35;3.90;;;1.70;;
21833;SDS011;11079;51.092;3.458;2024-03-29T07:00:00;3.75;;;1.98;;
21833;SDS011;11079;51.092;3.458;2024-03-29T07:02:28;5.25;;;1.70;;
21833;SDS011;11079;51.092;3.458;2024-03-29T07:04:53;2.88;;;1.60;;
21833;SDS011;11079;51.092;3.458;2024-03-29T07:07:19;3.70;;;1.92;;
21833;SDS011;11079;51.092;3.458;2024-03-29T07:09:45;3.67;;;2.15;;
21833;SDS011;11079;51.092;3.458;2024-03-29T07:12:10;4.32;;;2.30;;
21833;SDS011;11079;51.092;3.458;2024-03-29T07:14:36;3.60;;;2.22;;
21833;SDS011;11079;51.092;3.458;2024-03-29T07:17:02;3.83;;;2.53;;
21833;SDS011;11079;51.092;3.458;2024-03-29T07:19:28;3.75;;;2.38;;
21833;SDS011;11079;51.092;3.458;2024-03-29T07:21:53;4.28;;;2.08;;
21833;SDS011;11079;51.092;3.458;2024-03-29T07:24:19;4.72;;;2.22;;
21833;SDS011;11079;51.092;3.458;2024-03-29T07:26:45;5.78;;;2.28;;
21833;SDS011;11079;51.092;3.458;2024-03-29T07:29:11;5.50;;;2.38;;
21833;SDS011;11079;51.092;3.458;2024-03-29T07:31:36;5.40;;;1.60;;
21833;SDS011;11079;51.092;3.458;2024-03-29T07:34:02;3.08;;;1.92;;
21833;SDS011;11079;51.092;3.458;2024-03-29T07:36:28;3.92;;;2.00;;
21833;SDS011;11079;51.092;3.458;2024-03-29T07:38:59;3.50;;;1.95;;
21833;SDS011;11079;51.092;3.458;2024-03-29T07:41:25;4.38;;;2.05;;
21833;SDS011;11079;51.092;3.458;2024-03-29T07:43:54;7.43;;;2.47;;
21833;SDS011;11079;51.092;3.458;2024-03-29T07:46:24;4.22;;;1.60;;
21833;SDS011;11079;51.092;3.458;2024-03-29T07:48:52;2.72;;;1.77;;
21833;SDS011;11079;51.092;3.458;2024-03-29T07:51:18;5.45;;;2.08;;
21833;SDS011;11079;51.092;3.458;2024-03-29T07:53:43;2.88;;;2.05;;
21833;SDS011;11079;51.092;3.458;2024-03-29T07:56:09;4.53;;;2.15;;
21833;SDS011;11079;51.092;3.458;2024-03-29T07:58:35;3.60;;;2.20;;
21833;SDS011;11079;51.092;3.458;2024-03-29T08:01:00;3.00;;;1.80;;
21833;SDS011;11079;51.092;3.458;2024-03-29T08:03:26;5.55;;;1.50;;
21833;SDS011;11079;51.092;3.458;2024-03-29T08:05:56;3.53;;;1.92;;
21833;SDS011;11079;51.092;3.458;2024-03-29T08:08:25;3.95;;;1.40;;
21833;SDS011;11079;51.092;3.458;2024-03-29T08:10:53;4.03;;;1.70;;
21833;SDS011;11079;51.092;3.458;2024-03-29T08:13:19;2.63;;;2.08;;
21833;SDS011;11079;51.092;3.458;2024-03-29T08:15:46;4.03;;;1.90;;
21833;SDS011;11079;51.092;3.458;2024-03-29T08:18:12;6.30;;;2.95;;
21833;SDS011;11079;51.092;3.458;2024-03-29T08:20:38;7.53;;;2.35;;
21833;SDS011;11079;51.092;3.458;2024-03-29T08:23:04;3.17;;;1.80;;
21833;SDS011;11079;51.092;3.458;2024-03-29T08:25:30;5.78;;;2.42;;
21833;SDS011;11079;51.092;3.458;2024-03-29T08:27:55;5.38;;;2.80;;
21833;SDS011;11079;51.092;3.458;2024-03-29T08:30:26;8.65;;;3.20;;
21833;SDS011;11079;51.092;3.458;2024-03-29T08:32:57;4.60;;;2.28;;
21833;SDS011;11079;51.092;3.458;2024-03-29T08:35:24;6.57;;;3.08;;
21833;SDS011;11079;51.092;3.458;2024-03-29T08:37:50;4.50;;;2.75;;
21833;SDS011;11079;51.092;3.458;2024-03-29T08:40:16;7.57;;;2.72;;
21833;SDS011;11079;51.092;3.458;2024-03-29T08:42:42;9.23;;;2.90;;
21833;SDS011;11079;51.092;3.458;2024-03-29T08:45:08;4.80;;;2.40;;
21833;SDS011;11079;51.092;3.458;2024-03-29T08:47:35;5.50;;;3.15;;
21833;SDS011;11079;51.092;3.458;2024-03-29T08:50:00;8.90;;;3.00;;
21833;SDS011;11079;51.092;3.458;2024-03-29T08:52:28;3.50;;;2.75;;
21833;SDS011;11079;51.092;3.458;2024-03-29T08:54:54;4.45;;;2.60;;
21833;SDS011;11079;51.092;3.458;2024-03-29T08:57:20;3.67;;;2.25;;
21833;SDS011;11079;51.092;3.458;2024-03-29T08:59:45;3.90;;;2.17;;
21833;SDS011;11079;51.092;3.458;2024-03-29T09:02:11;5.50;;;2.05;;
21833;SDS011;11079;51.092;3.458;2024-03-29T09:04:36;4.03;;;2.05;;
21833;SDS011;11079;51.092;3.458;2024-03-29T09:07:02;5.05;;;2.25;;
21833;SDS011;11079;51.092;3.458;2024-03-29T09:09:29;3.75;;;1.90;;
21833;SDS011;11079;51.092;3.458;2024-03-29T09:11:55;2.47;;;2.05;;
21833;SDS011;11079;51.092;3.458;2024-03-29T09:14:21;3.10;;;1.80;;
21833;SDS011;11079;51.092;3.458;2024-03-29T09:16:57;2.08;;;1.63;;
21833;SDS011;11079;51.092;3.458;2024-03-29T09:19:22;3.15;;;1.90;;
21833;SDS011;11079;51.092;3.458;2024-03-29T09:21:49;3.53;;;1.70;;
21833;SDS011;11079;51.092;3.458;2024-03-29T09:24:15;2.95;;;1.67;;
21833;SDS011;11079;51.092;3.458;2024-03-29T09:26:42;3.55;;;1.85;;
21833;SDS011;11079;51.092;3.458;2024-03-29T09:29:08;4.15;;;1.60;;
21833;SDS011;11079;51.092;3.458;2024-03-29T09:31:34;2.95;;;1.75;;
21833;SDS011;11079;51.092;3.458;2024-03-29T09:34:00;4.00;;;1.50;;
21833;SDS011;11079;51.092;3.458;2024-03-29T09:36:26;3.58;;;1.80;;
21833;SDS011;11079;51.092;3.458;2024-03-29T09:38:51;2.78;;;1.52;;
21833;SDS011;11079;51.092;3.458;2024-03-29T09:41:18;1.95;;;1.40;;
21833;SDS011;11079;51.092;3.458;2024-03-29T09:43:45;4.45;;;1.63;;
21833;SDS011;11079;51.092;3.458;2024-03-29T09:46:12;1.77;;;1.33;;
21833;SDS011;11079;51.092;3.458;2024-03-29T09:48:43;5.40;;;1.67;;
21833;SDS011;11079;51.092;3.458;2024-03-29T09:51:10;1.77;;;1.35;;
21833;SDS011;11079;51.092;3.458;2024-03-29T09:53:39;1.95;;;1.15;;
21833;SDS011;11079;51.092;3.458;2024-03-29T09:56:07;1.63;;;1.33;;
21833;SDS011;11079;51.092;3.458;2024-03-29T09:58:34;1.63;;;1.13;;
21833;SDS011;11079;51.092;3.458;2024-03-29T10:01:01;3.95;;;1.60;;
21833;SDS011;11079;51.092;3.458;2024-03-29T10:03:29;2.70;;;1.33;;
21833;SDS011;11079;51.092;3.458;2024-03-29T10:05:59;1.73;;;1.30;;
21833;SDS011;11079;51.092;3.458;2024-03-29T10:08:29;4.75;;;1.88;;
21833;SDS011;11079;51.092;3.458;2024-03-29T10:10:55;2.53;;;1.67;;
21833;SDS011;11079;51.092;3.458;2024-03-29T10:13:24;2.33;;;1.35;;
21833;SDS011;11079;51.092;3.458;2024-03-29T10:15:51;1.30;;;1.02;;
21833;SDS011;11079;51.092;3.458;2024-03-29T10:18:20;3.03;;;1.10;;
21833;SDS011;11079;51.092;3.458;2024-03-29T10:21:02;3.13;;;1.33;;
21833;SDS011;11079;51.092;3.458;2024-03-29T10:23:30;2.30;;;1.10;;
21833;SDS011;11079;51.092;3.458;2024-03-29T10:25:56;1.55;;;0.90;;
21833;SDS011;11079;51.092;3.458;2024-03-29T10:28:22;3.42;;;1.05;;
21833;SDS011;11079;51.092;3.458;2024-03-29T10:30:49;2.97;;;0.98;;
21833;SDS011;11079;51.092;3.458;2024-03-29T10:33:18;1.38;;;0.85;;
21833;SDS011;11079;51.092;3.458;2024-03-29T10:35:43;2.67;;;1.05;;
21833;SDS011;11079;51.092;3.458;2024-03-29T10:38:10;1.80;;;0.65;;
21833;SDS011;11079;51.092;3.458;2024-03-29T10:40:39;1.80;;;1.00;;
21833;SDS011;11079;51.092;3.458;2024-03-29T10:43:10;0.95;;;0.80;;
21833;SDS011;11079;51.092;3.458;2024-03-29T10:45:41;3.65;;;0.90;;
21833;SDS011;11079;51.092;3.458;2024-03-29T10:48:08;1.92;;;0.80;;
21833;SDS011;11079;51.092;3.458;2024-03-29T10:50:38;1.83;;;0.70;;
21833;SDS011;11079;51.092;3.458;2024-03-29T10:53:07;2.88;;;0.82;;
21833;SDS011;11079;51.092;3.458;2024-03-29T10:55:35;2.22;;;0.63;;
21833;SDS011;11079;51.092;3.458;2024-03-29T10:58:02;2.33;;;0.82;;
21833;SDS011;11079;51.092;3.458;2024-03-29T11:00:29;2.30;;;0.63;;
21833;SDS011;11079;51.092;3.458;2024-03-29T11:05:31;2.95;;;0.80;;
21833;SDS011;11079;51.092;3.458;2024-03-29T11:07:58;2.17;;;0.80;;
21833;SDS011;11079;51.092;3.458;2024-03-29T11:15:38;1.30;;;0.55;;
21833;SDS011;11079;51.092;3.458;2024-03-29T11:18:06;2.78;;;0.70;;
21833;SDS011;11079;51.092;3.458;2024-03-29T11:20:33;2.08;;;1.15;;
21833;SDS011;11079;51.092;3.458;2024-03-29T11:23:06;1.98;;;0.60;;
21833;SDS011;11079;51.092;3.458;2024-03-29T11:25:54;2.42;;;0.90;;
21833;SDS011;11079;51.092;3.458;2024-03-29T11:28:24;1.27;;;0.70;;
21833;SDS011;11079;51.092;3.458;2024-03-29T11:30:52;5.72;;;0.60;;
21833;SDS011;11079;51.092;3.458;2024-03-29T11:33:25;2.78;;;0.90;;
21833;SDS011;11079;51.092;3.458;2024-03-29T11:38:37;2.60;;;0.90;;
21833;SDS011;11079;51.092;3.458;2024-03-29T11:41:22;1.38;;;0.80;;
21833;SDS011;11079;51.092;3.458;2024-03-29T11:43:49;2.67;;;0.77;;
21833;SDS011;11079;51.092;3.458;2024-03-29T11:46:18;1.38;;;0.50;;
21833;SDS011;11079;51.092;3.458;2024-03-29T11:48:44;1.50;;;0.70;;
21833;SDS011;11079;51.092;3.458;2024-03-29T11:51:20;1.75;;;0.80;;
21833;SDS011;11079;51.092;3.458;2024-03-29T11:53:50;1.65;;;0.88;;
21833;SDS011;11079;51.092;3.458;2024-03-29T11:56:17;0.98;;;0.70;;
21833;SDS011;11079;51.092;3.458;2024-03-29T11:58:43;1.67;;;0.60;;
21833;SDS011;11079;51.092;3.458;2024-03-29T12:01:09;1.75;;;0.80;;
21833;SDS011;11079;51.092;3.458;2024-03-29T12:03:37;1.13;;;0.70;;
21833;SDS011;11079;51.092;3.458;2024-03-29T12:06:04;1.35;;;0.60;;
21833;SDS011;11079;51.092;3.458;2024-03-29T12:08:31;1.55;;;0.70;;
21833;SDS011;11079;51.092;3.458;2024-03-29T12:10:58;2.20;;;0.70;;
21833;SDS011;11079;51.092;3.458;2024-03-29T12:13:24;1.20;;;0.60;;
21833;SDS011;11079;51.092;3.458;2024-03-29T12:15:50;1.17;;;0.57;;
21833;SDS011;11079;51.092;3.458;2024-03-29T12:18:16;1.17;;;0.57;;
21833;SDS011;11079;51.092;3.458;2024-03-29T12:20:44;2.03;;;0.60;;
21833;SDS011;11079;51.092;3.458;2024-03-29T12:23:14;1.75;;;0.70;;
21833;SDS011;11079;51.092;3.458;2024-03-29T12:25:45;1.75;;;0.47;;
21833;SDS011;11079;51.092;3.458;2024-03-29T12:28:12;2.03;;;0.70;;
21833;SDS011;11079;51.092;3.458;2024-03-29T12:30:46;5.82;;;0.95;;
21833;SDS011;11079;51.092;3.458;2024-03-29T12:33:16;2.85;;;0.98;;
21833;SDS011;11079;51.092;3.458;2024-03-29T12:35:50;1.67;;;0.55;;
21833;SDS011;11079;51.092;3.458;2024-03-29T12:38:21;2.45;;;0.55;;
21833;SDS011;11079;51.092;3.458;2024-03-29T12:40:49;1.52;;;0.60;;
21833;SDS011;11079;51.092;3.458;2024-03-29T12:43:19;0.93;;;0.63;;
21833;SDS011;11079;51.092;3.458;2024-03-29T12:45:46;1.77;;;0.60;;
21833;SDS011;11079;51.092;3.458;2024-03-29T12:48:15;2.28;;;0.73;;
21833;SDS011;11079;51.092;3.458;2024-03-29T12:50:42;1.42;;;0.77;;
21833;SDS011;11079;51.092;3.458;2024-03-29T12:53:10;2.13;;;0.40;;
21833;SDS011;11079;51.092;3.458;2024-03-29T12:55:37;2.53;;;0.60;;
21833;SDS011;11079;51.092;3.458;2024-03-29T12:58:10;1.42;;;0.47;;
21833;SDS011;11079;51.092;3.458;2024-03-29T13:00:40;1.40;;;0.70;;
21833;SDS011;11079;51.092;3.458;2024-03-29T13:03:06;3.45;;;0.70;;
21833;SDS011;11079;51.092;3.458;2024-03-29T13:05:32;4.50;;;0.65;;
21833;SDS011;11079;51.092;3.458;2024-03-29T13:08:02;0.80;;;0.50;;
21833;SDS011;11079;51.092;3.458;2024-03-29T13:10:32;1.08;;;0.52;;
21833;SDS011;11079;51.092;3.458;2024-03-29T13:12:57;1.05;;;0.50;;
21833;SDS011;11079;51.092;3.458;2024-03-29T13:15:23;1.85;;;0.65;;
21833;SDS011;11079;51.092;3.458;2024-03-29T13:17:51;0.75;;;0.50;;
21833;SDS011;11079;51.092;3.458;2024-03-29T13:20:18;1.92;;;0.70;;
21833;SDS011;11079;51.092;3.458;2024-03-29T13:22:44;1.00;;;0.47;;
21833;SDS011;11079;51.092;3.458;2024-03-29T13:25:12;1.80;;;1.00;;
21833;SDS011;11079;51.092;3.458;2024-03-29T13:27:38;0.65;;;0.60;;
21833;SDS011;11079;51.092;3.458;2024-03-29T13:30:05;1.27;;;0.57;;
21833;SDS011;11079;51.092;3.458;2024-03-29T13:32:32;1.23;;;0.60;;
21833;SDS011;11079;51.092;3.458;2024-03-29T13:34:59;1.33;;;0.50;;
21833;SDS011;11079;51.092;3.458;2024-03-29T13:37:25;1.08;;;0.68;;
21833;SDS011;11079;51.092;3.458;2024-03-29T13:39:54;0.85;;;0.52;;
21833;SDS011;11079;51.092;3.458;2024-03-29T13:42:20;1.65;;;0.60;;
21833;SDS011;11079;51.092;3.458;2024-03-29T13:44:49;1.35;;;0.65;;
21833;SDS011;11079;51.092;3.458;2024-03-29T13:47:15;0.73;;;0.50;;
21833;SDS011;11079;51.092;3.458;2024-03-29T13:49:41;1.05;;;0.40;;
21833;SDS011;11079;51.092;3.458;2024-03-29T13:52:07;1.88;;;0.60;;
21833;SDS011;11079;51.092;3.458;2024-03-29T13:54:33;1.13;;;0.57;;
21833;SDS011;11079;51.092;3.458;2024-03-29T13:56:59;2.45;;;0.60;;
21833;SDS011;11079;51.092;3.458;2024-03-29T13:59:26;1.80;;;1.05;;
21833;SDS011;11079;51.092;3.458;2024-03-29T14:01:55;0.93;;;0.60;;
21833;SDS011;11079;51.092;3.458;2024-03-29T14:04:21;1.67;;;0.50;;
21833;SDS011;11079;51.092;3.458;2024-03-29T14:06:48;1.08;;;0.63;;
21833;SDS011;11079;51.092;3.458;2024-03-29T14:09:15;1.15;;;0.63;;
21833;SDS011;11079;51.092;3.458;2024-03-29T14:11:40;1.65;;;0.50;;
21833;SDS011;11079;51.092;3.458;2024-03-29T14:14:08;1.10;;;0.57;;
21833;SDS011;11079;51.092;3.458;2024-03-29T14:16:36;2.58;;;0.70;;
21833;SDS011;11079;51.092;3.458;2024-03-29T14:19:04;1.25;;;0.40;;
21833;SDS011;11079;51.092;3.458;2024-03-29T14:21:31;2.50;;;0.60;;
21833;SDS011;11079;51.092;3.458;2024-03-29T14:23:57;2.72;;;0.75;;
21833;SDS011;11079;51.092;3.458;2024-03-29T14:26:23;2.65;;;0.65;;
21833;SDS011;11079;51.092;3.458;2024-03-29T14:28:50;1.10;;;0.77;;
21833;SDS011;11079;51.092;3.458;2024-03-29T14:31:16;0.60;;;0.60;;
21833;SDS011;11079;51.092;3.458;2024-03-29T14:33:43;2.42;;;0.77;;
21833;SDS011;11079;51.092;3.458;2024-03-29T14:36:09;1.88;;;0.57;;
21833;SDS011;11079;51.092;3.458;2024-03-29T14:38:35;0.65;;;0.55;;
21833;SDS011;11079;51.092;3.458;2024-03-29T14:41:01;0.50;;;0.50;;
21833;SDS011;11079;51.092;3.458;2024-03-29T14:43:27;1.98;;;0.65;;
21833;SDS011;11079;51.092;3.458;2024-03-29T14:45:52;1.95;;;0.70;;
21833;SDS011;11079;51.092;3.458;2024-03-29T14:48:18;0.82;;;0.70;;
21833;SDS011;11079;51.092;3.458;2024-03-29T14:50:44;2.35;;;0.75;;
21833;SDS011;11079;51.092;3.458;2024-03-29T14:53:11;1.33;;;0.57;;
21833;SDS011;11079;51.092;3.458;2024-03-29T14:55:38;0.93;;;0.60;;